Emit, North Carolina
Current Conditions -  °F | °C
As of 9:53 AM on Wednesday 26 Nov 2014 (Local Time) from KRWI Reporting Station
Moderate Rain Moderate Rain  
Wind Chill: 38°   Ceiling: 1100
Heat Index: 46°   Visibility: 4mi
Dew Point: 43°   Wind: 20mph
Humidity: 89%   Direction: 350°N
Pressure: 29.9"   Gusts: 30mph
Location:  35.7662°N, 78.206°W
Report Text: KRWI 261453Z AUTO 35017G26KT 4SM RA BR BKN011 OVC016 08/06 A2990 RMK AO2 PK WND 34030/1437 SLP124 P0016 60057 T00780061 51005
Loading
Personal Weather Stations






























Interactive Weather Map New forecast layout! Learn more

10-Day Weather Forecast

Advertisements
Track Severe Weather on mobile